This is the latest recevied weather packets stored in our database for station/object WV8MT. If no packets are shown the sender has not sent any weather packets the latest 10 day(s).
| Time | Temp. | Humidity | Pressure | Rain* | Wind** | Luminosity | Snow |
|---|---|---|---|---|---|---|---|
| 1777846833 | 16.67° C | 33% | 1018.3 hPa | 0 mm | - | - | - |
| 1777846217 | 17.22° C | 32% | 1018.3 hPa | 0 mm | - | - | - |
| 1777845621 | 17.78° C | 30% | 1018.3 hPa | 0 mm | - | - | - |
| 1777844430 | 17.78° C | 30% | 1018.5 hPa | 0 mm | - | - | - |
| 1777842623 | 17.78° C | 31% | 1018.5 hPa | 0 mm | - | - | - |
| 1777842049 | 17.22° C | 33% | 1018.5 hPa | 0 mm | - | - | - |
| 1777831843 | 14.44° C | 36% | 1020.6 hPa | 0 mm | - | - | - |
| 1777831227 | 13.89° C | 35% | 1020.6 hPa | 0 mm | - | - | - |
| 1777827019 | 12.78° C | 42% | 1021.3 hPa | 0 mm | - | - | - |
| 1777818025 | 8.33° C | 51% | 1022.2 hPa | 0 mm | - | - | - |
| 1777817423 | 8.89° C | 50% | 1022.2 hPa | 0 mm | - | - | - |
| 1777813221 | 7.78° C | 51% | 1022 hPa | 0 mm | - | - | - |
| 1777810243 | 8.33° C | 54% | 1021.7 hPa | 0 mm | - | - | - |
| 1777800626 | 3.33° C | 69% | 1019.4 hPa | 0 mm | - | - | - |
| 1777797020 | 4.44° C | 69% | 1019.3 hPa | 0 mm | - | - | - |
| 1777791640 | 4.44° C | 65% | 1018.8 hPa | 0 mm | - | - | - |
| 1777790428 | 4.44° C | 67% | 1018.9 hPa | 0 mm | - | - | - |
| 1777787430 | 5° C | 65% | 1019.1 hPa | 0 mm | - | - | - |
| 1777786241 | 5° C | 68% | 1018.8 hPa | 0 mm | - | - | - |
| 1777776016 | 4.44° C | 80% | 1018.8 hPa | 0 mm | - | - | - |
| 1777775440 | 4.44° C | 76% | 1018.8 hPa | 0 mm | - | - | - |
| 1777774824 | 5° C | 76% | 1018.7 hPa | 0 mm | - | - | - |
| 1777769465 | 7.22° C | 61% | 1017.8 hPa | 0 mm | - | - | - |
| 1777765237 | 8.89° C | 51% | 1017.1 hPa | 0 mm | - | - | - |
| 1777758625 | 13.33° C | 42% | 1016.4 hPa | 0 mm | - | - | - |
* Rain latest hour (hover to see other rain measurements)
** Current wind speed in m/s (hover to see current wind gust speed)